Time;durP1;ratioP1;P1;durP2;ratioP2;P2;SDS_P1;SDS_P2;PMS_P1;PMS_P2;Temp;Humidity;BMP_temperature;BMP_pressure;BME280_temperature;BME280_humidity;BME280_pressure;Samples;Min_cycle;Max_cycle;Signal;HPM_P1;HPM_P2
2023/06/11 00:00:11;;;;;;;7.13;2.58;;;;;;;19.03;40.13;101260.16;5004706;28;20049;-58
2023/06/11 00:02:41;;;;;;;3.22;2.45;;;;;;;18.97;40.37;101260.69;5006363;28;20058;-58
2023/06/11 00:05:09;;;;;;;7.85;3.00;;;;;;;18.93;40.65;101259.25;4999024;28;20060;-60
2023/06/11 00:07:40;;;;;;;13.38;3.00;;;;;;;18.87;40.84;101268.63;4997464;28;20054;-59
2023/06/11 00:10:07;;;;;;;8.20;2.50;;;;;;;18.86;40.99;101266.06;4998811;28;20121;-58
2023/06/11 00:12:34;;;;;;;8.20;3.10;;;;;;;18.86;41.02;101272.25;5002329;28;20111;-58
2023/06/11 00:15:02;;;;;;;14.35;3.47;;;;;;;18.80;41.03;101271.94;5005576;28;20057;-58
2023/06/11 00:17:33;;;;;;;5.13;2.92;;;;;;;18.74;40.94;101269.78;5007085;28;20073;-59
2023/06/11 00:20:09;;;;;;;7.43;2.80;;;;;;;18.69;41.40;101270.16;5006536;28;20042;-56
2023/06/11 00:22:40;;;;;;;11.50;2.90;;;;;;;18.64;41.84;101272.31;5005049;28;20056;-57
2023/06/11 00:25:09;;;;;;;12.65;2.92;;;;;;;18.62;41.80;101276.94;5006300;28;20704;-59
2023/06/11 00:27:37;;;;;;;8.75;3.15;;;;;;;18.57;41.78;101274.63;5004469;28;20058;-58
2023/06/11 00:30:06;;;;;;;3.97;2.50;;;;;;;18.57;42.07;101274.63;5000734;28;20065;-58
2023/06/11 00:32:35;;;;;;;7.85;2.90;;;;;;;18.56;41.76;101277.44;5005605;28;20105;-60
2023/06/11 00:35:08;;;;;;;5.10;2.90;;;;;;;18.48;42.00;101280.72;5002878;28;20080;-56
2023/06/11 00:37:37;;;;;;;5.57;2.53;;;;;;;18.41;41.99;101275.03;5006055;28;20483;-58
2023/06/11 00:40:04;;;;;;;8.65;2.80;;;;;;;18.35;42.14;101280.03;4998799;28;20063;-61
2023/06/11 00:42:35;;;;;;;6.65;2.70;;;;;;;18.29;42.27;101273.38;5007565;28;20084;-59
2023/06/11 00:45:05;;;;;;;5.32;3.08;;;;;;;18.25;42.39;101279.94;4999186;28;20050;-57
2023/06/11 00:47:36;;;;;;;11.35;2.58;;;;;;;18.21;42.62;101276.66;5009462;28;20125;-60
2023/06/11 00:50:04;;;;;;;3.88;2.53;;;;;;;18.17;42.79;101271.72;5012592;28;20279;-59
2023/06/11 00:52:32;;;;;;;6.28;2.80;;;;;;;18.21;42.94;101284.66;5010047;28;20133;-57
2023/06/11 00:54:59;;;;;;;12.90;2.75;;;;;;;18.14;42.74;101272.78;5008970;28;20068;-59
2023/06/11 00:57:27;;;;;;;5.22;2.90;;;;;;;18.09;42.98;101274.97;5010502;28;20049;-60
2023/06/11 00:59:55;;;;;;;7.05;2.75;;;;;;;18.04;43.14;101282.50;5010594;28;20144;-57
2023/06/11 01:02:35;;;;;;;5.57;2.50;;;;;;;18.00;43.30;101282.88;4999629;28;20209;-59
2023/06/11 01:05:05;;;;;;;6.72;2.50;;;;;;;17.95;43.26;101278.75;5006099;28;20149;-61
2023/06/11 01:07:35;;;;;;;7.03;2.65;;;;;;;17.93;43.30;101274.53;5001277;28;20076;-60
2023/06/11 01:10:03;;;;;;;6.28;2.70;;;;;;;17.90;43.28;101280.09;5012143;28;20125;-59
2023/06/11 01:12:31;;;;;;;7.70;3.00;;;;;;;17.85;43.32;101275.13;5005360;28;20133;-57
2023/06/11 01:14:59;;;;;;;6.18;2.55;;;;;;;17.78;43.45;101276.56;5001771;28;20069;-59
2023/06/11 01:17:40;;;;;;;9.65;2.60;;;;;;;17.74;43.63;101274.28;4987585;28;20058;-58
2023/06/11 01:20:14;;;;;;;5.85;2.60;;;;;;;17.68;43.85;101278.25;5006149;28;20169;-58
2023/06/11 01:23:00;;;;;;;2.53;2.22;;;;;;;17.64;44.10;101274.97;5008752;28;20060;-56
2023/06/11 01:25:37;;;;;;;4.88;2.83;;;;;;;17.60;44.47;101291.28;5007734;28;20050;-58
2023/06/11 01:28:10;;;;;;;6.07;3.00;;;;;;;17.56;44.16;101285.38;5000970;28;20129;-57
2023/06/11 01:30:48;;;;;;;8.45;3.00;;;;;;;17.53;44.17;101288.28;5001821;28;20081;-60
2023/06/11 01:33:18;;;;;;;7.97;3.15;;;;;;;17.49;44.48;101285.97;5011903;28;20136;-59
2023/06/11 01:35:48;;;;;;;7.03;3.00;;;;;;;17.44;44.62;101289.84;5016568;28;20113;-53
2023/06/11 01:38:30;;;;;;;11.95;3.80;;;;;;;17.40;44.58;101291.03;5006574;28;20136;-58
2023/06/11 01:40:58;;;;;;;10.02;3.00;;;;;;;17.35;44.82;101292.34;5013632;28;20034;-59
2023/06/11 01:43:28;;;;;;;5.90;2.40;;;;;;;17.31;44.91;101294.41;5013927;28;20054;-65
2023/06/11 01:45:56;;;;;;;5.90;3.10;;;;;;;17.28;45.07;101293.78;5000131;28;20058;-58
2023/06/11 01:48:23;;;;;;;9.68;3.20;;;;;;;17.26;45.39;101296.56;5008599;28;21465;-59
2023/06/11 01:50:50;;;;;;;9.27;2.80;;;;;;;17.22;45.60;101292.44;5004009;28;20100;-59
2023/06/11 01:53:17;;;;;;;11.88;2.88;;;;;;;17.17;45.97;101291.94;5010993;28;20141;-56
2023/06/11 01:55:45;;;;;;;8.15;3.10;;;;;;;17.16;45.51;101290.25;5013075;28;20133;-58
2023/06/11 01:58:12;;;;;;;11.70;3.35;;;;;;;17.11;45.71;101293.28;5013428;28;20053;-58
2023/06/11 02:00:40;;;;;;;5.28;2.35;;;;;;;17.09;45.74;101289.88;4990259;28;20117;-59
2023/06/11 02:03:08;;;;;;;9.85;2.85;;;;;;;17.07;45.89;101290.97;5010546;28;20053;-60
2023/06/11 02:05:36;;;;;;;5.75;2.60;;;;;;;17.03;46.14;101290.34;5010447;28;20575;-58
2023/06/11 02:08:03;;;;;;;4.20;2.47;;;;;;;16.96;45.89;101291.75;5011387;28;20097;-60
2023/06/11 02:10:31;;;;;;;6.10;2.40;;;;;;;16.91;45.93;101299.22;5012557;28;20136;-59
2023/06/11 02:12:58;;;;;;;6.90;2.75;;;;;;;16.88;46.22;101296.78;5010576;28;20243;-58
2023/06/11 02:15:27;;;;;;;9.95;2.70;;;;;;;16.83;46.29;101299.78;5011583;28;20054;-59
2023/06/11 02:17:55;;;;;;;6.20;2.70;;;;;;;16.77;46.60;101300.25;5010286;28;20514;-58
2023/06/11 02:20:23;;;;;;;6.20;2.78;;;;;;;16.75;46.69;101296.88;5003479;28;20053;-58
2023/06/11 02:22:50;;;;;;;5.70;2.80;;;;;;;16.71;46.59;101298.88;5005262;28;20081;-57
2023/06/11 02:25:18;;;;;;;6.45;2.63;;;;;;;16.68;46.69;101295.59;5007231;28;20058;-59
2023/06/11 02:27:48;;;;;;;6.28;3.03;;;;;;;16.67;46.97;101302.72;5009505;28;20062;-57
2023/06/11 02:30:16;;;;;;;6.47;2.45;;;;;;;16.66;46.99;101303.69;4986386;28;20077;-56
2023/06/11 02:32:44;;;;;;;4.75;2.45;;;;;;;16.60;46.95;101301.47;5010908;28;20050;-59
2023/06/11 02:35:12;;;;;;;4.85;2.88;;;;;;;16.57;47.05;101309.69;5006936;28;20045;-55
2023/06/11 02:37:40;;;;;;;5.82;3.30;;;;;;;16.54;46.94;101303.75;4983297;28;20064;-59
2023/06/11 02:40:08;;;;;;;5.55;2.95;;;;;;;16.49;47.21;101309.41;5006262;28;20357;-55
2023/06/11 02:42:35;;;;;;;7.72;2.83;;;;;;;16.46;47.45;101307.78;5005988;28;20148;-59
2023/06/11 02:45:03;;;;;;;5.82;2.40;;;;;;;16.45;47.65;101310.56;5005434;28;20157;-57
2023/06/11 02:47:30;;;;;;;10.98;3.05;;;;;;;16.42;47.58;101308.97;5008038;28;20050;-59
2023/06/11 02:49:58;;;;;;;7.55;2.97;;;;;;;16.39;47.62;101311.88;4997566;28;20046;-57
2023/06/11 02:52:25;;;;;;;4.85;2.60;;;;;;;16.38;47.61;101309.31;5005892;28;20101;-58
2023/06/11 02:54:52;;;;;;;8.50;2.63;;;;;;;16.35;47.75;101306.91;4996439;28;20050;-54
2023/06/11 02:57:20;;;;;;;5.75;2.78;;;;;;;16.31;47.96;101310.72;5007869;28;20145;-61
2023/06/11 02:59:47;;;;;;;4.63;1.95;;;;;;;16.29;48.01;101315.28;4999623;28;20584;-60
2023/06/11 03:02:15;;;;;;;10.20;2.78;;;;;;;16.27;48.03;101314.56;5005793;28;20556;-58
2023/06/11 03:04:42;;;;;;;7.53;2.50;;;;;;;16.27;48.18;101312.75;5003854;28;20049;-59
2023/06/11 03:07:10;;;;;;;5.35;2.28;;;;;;;16.24;48.25;101320.94;5003482;28;20064;-59
2023/06/11 03:09:37;;;;;;;11.32;2.60;;;;;;;16.23;48.14;101313.94;5004753;28;20566;-59
2023/06/11 03:12:05;;;;;;;6.80;2.63;;;;;;;16.23;48.21;101321.06;5004337;28;20065;-58
2023/06/11 03:14:32;;;;;;;4.40;2.35;;;;;;;16.21;48.05;101318.50;5005468;28;20093;-59
2023/06/11 03:17:00;;;;;;;7.50;2.58;;;;;;;16.20;48.19;101328.25;5004382;28;20042;-60
2023/06/11 03:19:28;;;;;;;6.40;2.67;;;;;;;16.20;47.86;101325.59;5005822;28;20100;-60
2023/06/11 03:21:55;;;;;;;7.13;3.10;;;;;;;16.18;48.09;101329.34;5001668;28;22286;-60
2023/06/11 03:24:22;;;;;;;7.65;2.47;;;;;;;16.17;48.29;101327.66;5004663;28;20050;-59
2023/06/11 03:26:49;;;;;;;10.35;2.85;;;;;;;16.15;48.25;101325.09;5001859;28;20056;-59
2023/06/11 03:29:17;;;;;;;4.57;2.28;;;;;;;16.16;48.35;101328.59;5005606;28;20185;-59
2023/06/11 03:31:44;;;;;;;9.55;2.45;;;;;;;16.17;48.40;101328.50;5000335;28;20054;-57
2023/06/11 03:34:12;;;;;;;4.88;2.08;;;;;;;16.17;48.24;101332.97;5004489;28;20625;-56
2023/06/11 03:36:39;;;;;;;4.20;2.58;;;;;;;16.13;48.31;101327.03;5003224;28;20786;-59
2023/06/11 03:39:06;;;;;;;10.85;2.30;;;;;;;16.14;48.42;101331.38;5004201;28;20986;-58
2023/06/11 03:41:34;;;;;;;7.68;2.67;;;;;;;16.17;48.31;101327.66;5002462;28;20042;-57
2023/06/11 03:44:04;;;;;;;5.72;2.22;;;;;;;16.18;48.26;101329.34;5004747;28;20696;-57
2023/06/11 03:46:31;;;;;;;13.35;2.90;;;;;;;16.21;48.45;101329.13;5004376;28;20050;-58
2023/06/11 03:49:00;;;;;;;10.02;1.65;;;;;;;16.21;48.33;101331.78;5000780;28;20084;-58
2023/06/11 03:51:27;;;;;;;8.98;2.60;;;;;;;16.22;48.63;101329.97;5003165;28;20078;-59
2023/06/11 03:53:54;;;;;;;5.88;2.15;;;;;;;16.22;48.50;101329.97;5014356;28;20136;-59
2023/06/11 03:56:21;;;;;;;6.40;2.33;;;;;;;16.20;48.65;101338.88;5004305;28;20148;-60
2023/06/11 03:58:49;;;;;;;3.15;2.15;;;;;;;16.17;48.74;101339.13;5006720;28;20076;-59
2023/06/11 04:01:16;;;;;;;5.15;2.50;;;;;;;16.20;48.66;101338.88;5001823;28;20058;-59
2023/06/11 04:03:43;;;;;;;7.75;2.95;;;;;;;16.25;48.65;101343.88;5009491;28;20056;-56
2023/06/11 04:06:11;;;;;;;10.30;2.38;;;;;;;16.26;48.85;101339.44;4998547;28;20060;-59
2023/06/11 04:08:39;;;;;;;4.15;2.25;;;;;;;16.27;48.88;101335.81;5006122;28;20049;-60
2023/06/11 04:11:06;;;;;;;7.35;2.55;;;;;;;16.29;48.68;101341.84;5006704;28;20056;-60
2023/06/11 04:13:33;;;;;;;4.30;2.83;;;;;;;16.29;48.62;101340.03;5008751;28;20081;-58
2023/06/11 04:16:01;;;;;;;7.20;2.53;;;;;;;16.31;48.61;101342.63;4994731;28;20046;-59
2023/06/11 04:18:32;;;;;;;4.88;2.45;;;;;;;16.32;48.75;101344.31;4992621;28;20696;-60
2023/06/11 04:21:01;;;;;;;11.27;2.42;;;;;;;16.35;48.96;101346.75;5004793;28;20146;-58
2023/06/11 04:23:28;;;;;;;5.57;2.30;;;;;;;16.37;48.67;101353.63;4992314;28;20054;-56
2023/06/11 04:25:56;;;;;;;5.97;2.35;;;;;;;16.38;48.76;101355.31;5002582;28;20531;-57
2023/06/11 04:28:25;;;;;;;6.03;2.45;;;;;;;16.41;48.63;101357.78;5005782;28;20122;-58
2023/06/11 04:30:57;;;;;;;5.65;2.15;;;;;;;16.43;48.67;101355.84;5004229;28;20136;-59
2023/06/11 04:33:32;;;;;;;10.18;2.17;;;;;;;16.44;48.56;101352.25;5002765;28;20068;-57
2023/06/11 04:36:04;;;;;;;10.23;2.05;;;;;;;16.53;48.65;101356.06;5005415;28;20121;-59
2023/06/11 04:38:32;;;;;;;7.38;2.15;;;;;;;16.57;48.45;101354.00;5001815;28;20235;-57
2023/06/11 04:41:00;;;;;;;11.90;2.35;;;;;;;16.56;48.43;101357.63;5001159;28;20109;-60
2023/06/11 04:43:27;;;;;;;3.47;1.95;;;;;;;16.60;48.43;101362.59;5004253;28;20046;-60
2023/06/11 04:45:56;;;;;;;7.95;2.50;;;;;;;16.64;48.50;101357.91;5005189;28;20463;-58
2023/06/11 04:48:24;;;;;;;6.05;2.45;;;;;;;16.66;48.46;101356.88;5002254;28;20050;-57
2023/06/11 04:50:52;;;;;;;6.68;2.38;;;;;;;16.68;48.35;101356.75;5001267;28;20164;-57
2023/06/11 04:53:22;;;;;;;4.13;2.05;;;;;;;16.71;48.27;101354.72;5004348;28;20046;-60
2023/06/11 04:55:51;;;;;;;5.57;2.65;;;;;;;16.75;48.33;101355.38;4989862;28;20105;-58
2023/06/11 04:58:20;;;;;;;3.35;2.17;;;;;;;16.79;48.47;101348.84;5004447;28;20165;-59
2023/06/11 05:00:47;;;;;;;4.75;2.33;;;;;;;16.80;48.37;101353.22;5003389;28;20137;-59
2023/06/11 05:03:18;;;;;;;5.85;2.40;;;;;;;16.87;48.47;101353.59;5005429;28;20291;-58
2023/06/11 05:05:49;;;;;;;7.43;2.42;;;;;;;16.94;48.09;101353.06;5003547;28;20077;-60
2023/06/11 05:08:24;;;;;;;7.82;3.42;;;;;;;17.00;48.04;101358.88;5002666;28;20136;-58
2023/06/11 05:10:52;;;;;;;4.13;2.13;;;;;;;17.03;48.05;101354.19;5002861;28;20053;-58
2023/06/11 05:13:24;;;;;;;7.28;2.00;;;;;;;17.08;47.81;101352.03;5003146;28;20570;-59
2023/06/11 05:15:56;;;;;;;9.52;2.55;;;;;;;17.17;47.78;101356.66;5004614;28;20148;-57
2023/06/11 05:18:26;;;;;;;5.55;2.28;;;;;;;17.24;47.63;101353.53;5005823;28;20137;-59
2023/06/11 05:20:54;;;;;;;5.07;2.53;;;;;;;17.32;47.59;101356.47;5003397;28;20152;-58
2023/06/11 05:23:28;;;;;;;5.40;2.40;;;;;;;17.39;47.72;101358.53;5001818;28;20497;-58
2023/06/11 05:26:01;;;;;;;4.50;1.92;;;;;;;17.46;47.56;101354.44;5007395;28;20073;-59
2023/06/11 05:28:29;;;;;;;5.15;2.30;;;;;;;17.58;47.19;101355.31;5007627;28;20100;-60
2023/06/11 05:30:56;;;;;;;5.78;2.10;;;;;;;17.64;47.31;101359.31;5007093;28;20509;-61
2023/06/11 05:33:26;;;;;;;4.32;2.25;;;;;;;17.72;46.89;101355.09;5008398;28;20136;-58
2023/06/11 05:35:53;;;;;;;15.75;3.05;;;;;;;17.79;46.79;101349.34;5007765;28;20062;-60
2023/06/11 05:38:21;;;;;;;4.13;2.20;;;;;;;17.87;46.73;101354.91;5005373;28;20161;-59
2023/06/11 05:40:48;;;;;;;6.00;2.60;;;;;;;17.93;46.71;101363.28;5007296;28;20530;-58
2023/06/11 05:43:16;;;;;;;6.97;2.38;;;;;;;18.01;46.43;101357.34;5006358;28;20054;-59
2023/06/11 05:45:48;;;;;;;6.10;2.50;;;;;;;18.09;46.55;101359.41;5004582;28;20428;-59
2023/06/11 05:48:16;;;;;;;8.50;2.20;;;;;;;18.19;46.20;101365.69;5008942;28;20061;-57
2023/06/11 05:50:44;;;;;;;5.78;2.33;;;;;;;18.20;46.22;101362.94;4993049;28;22860;-61
2023/06/11 05:53:12;;;;;;;8.75;2.65;;;;;;;18.29;46.09;101364.00;4994257;28;20049;-59
2023/06/11 05:55:39;;;;;;;6.50;2.53;;;;;;;18.37;45.99;101372.25;5010911;28;20149;-58
2023/06/11 05:58:07;;;;;;;8.43;2.53;;;;;;;18.42;45.86;101369.22;5002914;28;20152;-59
2023/06/11 06:00:35;;;;;;;8.38;2.90;;;;;;;18.53;45.90;101373.69;4988115;28;20908;-61
2023/06/11 06:03:04;;;;;;;11.05;2.45;;;;;;;18.59;45.75;101376.69;5003100;28;20042;-56
2023/06/11 06:05:32;;;;;;;4.80;2.60;;;;;;;18.68;45.52;101372.44;5002047;28;20046;-54
2023/06/11 06:07:59;;;;;;;6.00;2.38;;;;;;;18.74;45.46;101366.66;4995873;28;20251;-61
2023/06/11 06:10:28;;;;;;;8.40;2.35;;;;;;;18.85;45.03;101371.09;4999263;28;20058;-60
2023/06/11 06:12:56;;;;;;;6.75;2.72;;;;;;;18.94;45.12;101370.34;5008202;28;20045;-60
2023/06/11 06:15:23;;;;;;;6.80;2.83;;;;;;;18.99;45.26;101370.78;5005950;28;20058;-58
2023/06/11 06:17:50;;;;;;;3.75;2.35;;;;;;;19.06;45.05;101365.81;5006786;28;20359;-56
2023/06/11 06:20:18;;;;;;;8.98;2.78;;;;;;;19.15;44.89;101362.38;4996554;28;20112;-60
2023/06/11 06:22:45;;;;;;;8.63;2.55;;;;;;;19.23;44.73;101368.78;5004947;28;20056;-60
2023/06/11 06:25:15;;;;;;;8.60;2.75;;;;;;;19.32;44.69;101368.94;5009055;28;20056;-59
2023/06/11 06:27:43;;;;;;;5.75;2.90;;;;;;;19.43;44.45;101371.59;5000263;28;20058;-60
2023/06/11 06:30:11;;;;;;;3.83;2.25;;;;;;;19.56;44.30;101374.06;4995436;28;20046;-59
2023/06/11 06:32:38;;;;;;;7.00;2.60;;;;;;;19.61;44.34;101370.06;5008045;28;20041;-57
2023/06/11 06:35:08;;;;;;;8.77;2.60;;;;;;;19.69;43.95;101372.91;5000996;28;20064;-60
2023/06/11 06:37:36;;;;;;;4.57;2.72;;;;;;;19.75;43.88;101373.38;4997832;28;20125;-57
2023/06/11 06:40:04;;;;;;;6.63;2.58;;;;;;;19.85;43.55;101369.75;5005513;28;20237;-57
2023/06/11 06:42:31;;;;;;;5.72;2.88;;;;;;;19.95;43.68;101369.84;4998648;28;20057;-59
2023/06/11 06:44:59;;;;;;;8.02;3.00;;;;;;;20.07;43.38;101370.59;5007664;28;20054;-58
2023/06/11 06:47:26;;;;;;;4.85;2.50;;;;;;;20.18;43.37;101371.34;5004635;28;20085;-59
2023/06/11 06:49:53;;;;;;;5.82;2.47;;;;;;;20.27;42.90;101368.84;5010037;28;20121;-58
2023/06/11 06:52:20;;;;;;;8.82;2.45;;;;;;;20.33;42.88;101366.47;5009042;28;20081;-59
2023/06/11 06:54:50;;;;;;;7.38;2.42;;;;;;;20.43;42.22;101364.66;5004897;28;20482;-59
2023/06/11 06:57:17;;;;;;;4.03;2.45;;;;;;;20.55;42.63;101367.28;5007619;28;20387;-60
2023/06/11 06:59:45;;;;;;;7.10;2.67;;;;;;;20.65;42.33;101371.66;5009327;28;20463;-61
2023/06/11 07:02:12;;;;;;;11.45;2.70;;;;;;;20.72;42.08;101375.47;5001698;28;21045;-59
2023/06/11 07:04:41;;;;;;;6.35;2.65;;;;;;;20.82;42.20;101367.47;5005059;28;20065;-60
2023/06/11 07:07:08;;;;;;;16.00;3.08;;;;;;;20.93;41.73;101378.03;5004948;28;20054;-55
2023/06/11 07:09:36;;;;;;;9.43;2.17;;;;;;;21.02;41.46;101370.16;5006622;28;20488;-62
2023/06/11 07:12:03;;;;;;;5.10;2.60;;;;;;;21.15;41.62;101376.91;5006092;28;20062;-58
2023/06/11 07:14:31;;;;;;;8.13;2.45;;;;;;;21.23;41.36;101365.50;5006278;28;20050;-59
2023/06/11 07:16:58;;;;;;;5.30;2.40;;;;;;;21.29;41.06;101366.78;5006316;28;20046;-57
2023/06/11 07:19:25;;;;;;;7.63;2.50;;;;;;;21.29;40.79;101372.97;5006114;28;20042;-58
2023/06/11 07:21:52;;;;;;;9.02;2.40;;;;;;;21.37;40.93;101373.16;5004934;28;20107;-57
2023/06/11 07:24:20;;;;;;;5.88;2.97;;;;;;;21.48;40.39;101370.34;5007326;28;20077;-60
2023/06/11 07:26:48;;;;;;;6.68;2.30;;;;;;;21.60;40.41;101371.00;5005679;28;20053;-62
2023/06/11 07:29:16;;;;;;;8.15;2.22;;;;;;;21.75;40.18;101371.41;5006035;28;20119;-60
2023/06/11 07:31:43;;;;;;;8.23;2.90;;;;;;;21.89;40.19;101376.31;5010248;28;20111;-61
2023/06/11 07:34:11;;;;;;;10.88;2.85;;;;;;;21.94;40.00;101375.88;5008160;28;20376;-58
2023/06/11 07:36:39;;;;;;;5.82;2.42;;;;;;;21.95;39.79;101373.03;5006414;28;20081;-59
2023/06/11 07:39:06;;;;;;;7.70;2.50;;;;;;;22.04;39.97;101379.34;5010675;28;20070;-60
2023/06/11 07:41:34;;;;;;;7.32;3.00;;;;;;;22.17;39.58;101376.38;5023531;28;20103;-61
2023/06/11 07:44:01;;;;;;;5.10;2.47;;;;;;;22.30;39.32;101378.72;5002850;28;20177;-59
2023/06/11 07:46:29;;;;;;;9.30;3.10;;;;;;;22.40;39.18;101380.34;5013939;28;20096;-61
2023/06/11 07:48:57;;;;;;;10.02;4.13;;;;;;;22.45;39.23;101377.22;5015445;28;20166;-62
2023/06/11 07:51:25;;;;;;;6.07;2.88;;;;;;;22.58;39.20;101374.19;5008597;28;20085;-60
2023/06/11 07:53:56;;;;;;;6.57;2.67;;;;;;;22.67;38.54;101381.34;5005300;28;20054;-60
2023/06/11 07:56:24;;;;;;;11.65;2.72;;;;;;;22.77;38.41;101376.75;5007089;28;20092;-58
2023/06/11 07:58:51;;;;;;;13.55;3.45;;;;;;;22.88;38.54;101381.06;5006561;28;20109;-58
2023/06/11 08:01:18;;;;;;;8.13;2.60;;;;;;;22.97;38.26;101375.66;5003889;28;20061;-60
2023/06/11 08:03:46;;;;;;;8.18;2.90;;;;;;;23.04;38.15;101381.25;5004803;28;20057;-59
2023/06/11 08:06:13;;;;;;;5.32;3.05;;;;;;;23.20;37.72;101381.41;5006934;28;20030;-60
2023/06/11 08:08:41;;;;;;;10.57;3.33;;;;;;;23.31;37.82;101371.41;5006112;28;20053;-59
2023/06/11 08:11:08;;;;;;;4.93;2.50;;;;;;;23.39;37.74;101376.88;5011545;28;20462;-60
2023/06/11 08:13:36;;;;;;;9.00;2.92;;;;;;;23.47;37.47;101371.56;5010997;28;20133;-61
2023/06/11 08:16:04;;;;;;;8.68;2.65;;;;;;;23.55;37.46;101371.63;5002261;28;20144;-60
2023/06/11 08:18:31;;;;;;;14.70;3.38;;;;;;;23.58;37.51;101367.78;5010406;28;20100;-61
2023/06/11 08:20:59;;;;;;;8.00;2.83;;;;;;;23.63;37.06;101376.19;5006166;28;20053;-60
2023/06/11 08:23:26;;;;;;;6.90;2.80;;;;;;;23.73;37.27;101372.47;5008347;28;20091;-60
2023/06/11 08:25:58;;;;;;;4.75;2.67;;;;;;;23.82;37.06;101365.28;5010282;28;20092;-62
2023/06/11 08:28:27;;;;;;;7.53;3.22;;;;;;;23.95;36.90;101370.22;5003799;28;20141;-60
2023/06/11 08:30:55;;;;;;;9.05;2.47;;;;;;;24.08;36.94;101373.31;5010165;28;20137;-58
2023/06/11 08:33:23;;;;;;;7.85;2.58;;;;;;;24.13;37.31;101373.69;5006027;28;20050;-58
2023/06/11 08:35:50;;;;;;;4.88;3.40;;;;;;;24.13;36.59;101373.69;5008695;28;20072;-58
2023/06/11 08:38:18;;;;;;;9.88;2.90;;;;;;;24.21;36.46;101373.72;4999237;28;20149;-59
2023/06/11 08:40:45;;;;;;;4.25;2.65;;;;;;;24.34;36.23;101367.06;4994394;28;20144;-59
2023/06/11 08:43:13;;;;;;;9.10;2.97;;;;;;;24.46;36.37;101366.63;5007199;28;20117;-60
2023/06/11 08:45:40;;;;;;;7.50;3.38;;;;;;;24.58;36.31;101366.31;5005258;28;20121;-58
2023/06/11 08:48:08;;;;;;;5.30;2.72;;;;;;;24.70;35.78;101365.00;5005795;28;20135;-60
2023/06/11 08:50:35;;;;;;;10.20;3.10;;;;;;;24.76;35.59;101364.34;5001032;28;20174;-64
2023/06/11 08:53:04;;;;;;;9.73;3.72;;;;;;;24.82;35.87;101371.78;5007605;28;20526;-60
2023/06/11 08:55:32;;;;;;;5.72;3.22;;;;;;;24.90;35.61;101362.84;5007662;28;20053;-60
2023/06/11 08:58:00;;;;;;;8.05;3.20;;;;;;;25.00;35.50;101366.25;5004789;28;20100;-62
2023/06/11 09:00:27;;;;;;;9.88;3.33;;;;;;;25.09;35.58;101359.91;5012091;28;20068;-61
2023/06/11 09:02:54;;;;;;;7.70;3.15;;;;;;;25.18;34.99;101360.75;5013588;28;20060;-56
2023/06/11 09:05:22;;;;;;;8.73;3.50;;;;;;;25.26;35.08;101352.63;4994895;28;20053;-57
2023/06/11 09:07:51;;;;;;;5.10;3.35;;;;;;;25.39;35.34;101362.91;4995187;28;20500;-59
2023/06/11 09:10:19;;;;;;;11.60;3.45;;;;;;;25.38;34.31;101359.38;5012463;28;20050;-60
2023/06/11 09:12:47;;;;;;;5.60;3.30;;;;;;;25.43;34.56;101364.25;5013733;28;20108;-61
2023/06/11 09:15:15;;;;;;;7.63;3.47;;;;;;;25.55;34.38;101359.38;5018180;28;20064;-63
2023/06/11 09:17:46;;;;;;;6.38;3.53;;;;;;;25.63;34.63;101351.28;5011368;28;20045;-59
2023/06/11 09:20:15;;;;;;;10.32;3.08;;;;;;;25.77;34.43;101345.22;5001370;28;20062;-59
2023/06/11 09:22:44;;;;;;;7.97;3.22;;;;;;;25.88;34.09;101349.38;5006494;28;20053;-60
2023/06/11 09:25:19;;;;;;;7.18;3.10;;;;;;;26.03;34.28;101344.97;4998552;28;20042;-59
2023/06/11 09:27:47;;;;;;;8.02;3.60;;;;;;;26.09;33.90;101348.81;4986233;28;20054;-59
2023/06/11 09:30:17;;;;;;;6.95;3.15;;;;;;;26.14;33.92;101352.69;4986733;28;20160;-61
2023/06/11 09:32:46;;;;;;;6.70;3.67;;;;;;;26.19;33.96;101349.47;5004587;28;20140;-62
2023/06/11 09:35:15;;;;;;;11.90;3.78;;;;;;;26.21;33.97;101345.56;5009819;28;20065;-61
2023/06/11 09:37:51;;;;;;;6.43;2.92;;;;;;;26.34;33.91;101350.38;5011581;28;20049;-58
2023/06/11 09:40:20;;;;;;;10.02;3.40;;;;;;;26.45;33.77;101352.75;5006629;28;20073;-61
2023/06/11 09:42:48;;;;;;;5.70;3.72;;;;;;;26.46;33.27;101342.78;5012703;28;20100;-60
2023/06/11 09:45:19;;;;;;;10.07;3.72;;;;;;;26.44;32.86;101345.66;5012562;28;20142;-59
2023/06/11 09:47:47;;;;;;;8.57;3.58;;;;;;;26.54;33.57;101342.75;5012650;28;20140;-62
2023/06/11 09:50:16;;;;;;;10.07;3.83;;;;;;;26.54;32.75;101339.22;5009964;28;20054;-59
2023/06/11 09:52:45;;;;;;;4.32;3.38;;;;;;;26.49;33.22;101334.34;5008299;28;20061;-60
2023/06/11 09:55:13;;;;;;;5.28;3.47;;;;;;;26.62;33.18;101333.75;5009873;28;20053;-61
2023/06/11 09:57:42;;;;;;;6.45;3.42;;;;;;;26.74;33.25;101329.59;5012208;28;20510;-60
2023/06/11 10:00:11;;;;;;;7.10;3.58;;;;;;;26.88;32.89;101338.78;5010858;28;20046;-60
2023/06/11 10:02:41;;;;;;;11.10;4.57;;;;;;;27.06;32.72;101344.75;5006146;28;20068;-60
2023/06/11 10:05:10;;;;;;;6.55;3.80;;;;;;;27.18;32.50;101343.31;4993354;28;20056;-60
2023/06/11 10:07:47;;;;;;;11.00;3.67;;;;;;;27.25;32.55;101338.88;5006821;28;20054;-60
2023/06/11 10:10:19;;;;;;;10.32;4.43;;;;;;;27.35;31.95;101345.91;5008891;28;20065;-59
2023/06/11 10:12:53;;;;;;;5.72;3.72;;;;;;;27.48;31.86;101341.53;5009351;28;20050;-60
2023/06/11 10:15:23;;;;;;;11.60;4.63;;;;;;;27.50;31.74;101344.06;5005877;28;20141;-60
2023/06/11 10:17:53;;;;;;;10.65;3.90;;;;;;;27.54;31.66;101331.84;5015966;28;20109;-61
2023/06/11 10:20:28;;;;;;;10.02;4.20;;;;;;;27.61;31.79;101326.56;4990829;28;20126;-60
2023/06/11 10:23:07;;;;;;;6.15;3.97;;;;;;;27.76;31.71;101324.72;4994471;28;20046;-61
2023/06/11 10:25:40;;;;;;;10.70;4.15;;;;;;;27.86;31.31;101317.16;5009318;28;20060;-62
2023/06/11 10:28:08;;;;;;;7.75;3.97;;;;;;;27.91;31.07;101324.72;5011635;28;20072;-59
2023/06/11 10:30:35;;;;;;;7.22;4.15;;;;;;;28.00;31.11;101318.16;5007819;28;20164;-61
2023/06/11 10:33:03;;;;;;;6.85;3.83;;;;;;;28.01;31.22;101320.72;5010432;28;20129;-60
2023/06/11 10:35:36;;;;;;;5.07;3.67;;;;;;;28.13;31.40;101321.06;5006921;28;20120;-60
2023/06/11 10:38:12;;;;;;;8.80;4.47;;;;;;;28.26;31.65;101323.09;5006967;28;20418;-61
2023/06/11 10:40:40;;;;;;;8.25;4.25;;;;;;;28.42;31.34;101316.66;5006144;28;20057;-61
2023/06/11 10:43:21;;;;;;;9.93;4.55;;;;;;;28.53;31.14;101318.84;4991891;28;20100;-56
2023/06/11 10:46:02;;;;;;;6.95;4.28;;;;;;;28.39;30.85;101323.28;4997604;28;20080;-61
2023/06/11 10:48:30;;;;;;;6.32;4.22;;;;;;;28.21;31.13;101318.25;4998005;28;20054;-60
2023/06/11 10:51:01;;;;;;;7.75;4.85;;;;;;;28.42;30.96;101311.25;5001429;28;20058;-59
2023/06/11 10:53:40;;;;;;;6.00;4.05;;;;;;;28.72;30.11;101314.69;5007982;28;20434;-61
2023/06/11 10:56:09;;;;;;;6.75;3.78;;;;;;;28.97;29.78;101323.31;5002986;28;20046;-61
2023/06/11 10:58:36;;;;;;;9.23;4.22;;;;;;;29.08;28.45;101322.78;5008429;28;20390;-62
2023/06/11 11:01:07;;;;;;;8.40;4.85;;;;;;;29.01;27.47;101327.31;5012271;28;20058;-63
2023/06/11 11:03:34;;;;;;;9.20;4.10;;;;;;;29.04;27.53;101324.19;5010713;28;20132;-59
2023/06/11 11:06:03;;;;;;;8.18;3.88;;;;;;;29.23;27.68;101312.69;4996959;28;20050;-60
2023/06/11 11:08:36;;;;;;;8.30;3.90;;;;;;;29.44;27.94;101309.06;4997337;28;20064;-59
2023/06/11 11:11:04;;;;;;;7.30;4.05;;;;;;;29.50;27.51;101311.03;5011042;28;20859;-61
2023/06/11 11:13:32;;;;;;;5.22;3.72;;;;;;;29.63;27.60;101307.59;5005144;28;20093;-58
2023/06/11 11:16:00;;;;;;;10.27;4.30;;;;;;;29.72;27.51;101308.25;4981932;28;20070;-58
2023/06/11 11:18:27;;;;;;;5.45;4.18;;;;;;;29.81;27.54;101308.91;5008553;28;20049;-61
2023/06/11 11:20:55;;;;;;;7.50;4.07;;;;;;;30.08;27.15;101312.59;5007334;28;20602;-58
2023/06/11 11:23:26;;;;;;;9.57;4.50;;;;;;;30.34;26.25;101315.47;5009874;28;20045;-58
2023/06/11 11:25:53;;;;;;;8.02;4.13;;;;;;;30.45;26.33;101319.50;5002434;28;20038;-61
2023/06/11 11:28:21;;;;;;;12.75;4.43;;;;;;;30.55;26.28;101319.09;5016241;28;20136;-59
2023/06/11 11:30:50;;;;;;;7.65;4.40;;;;;;;30.67;25.83;101314.75;5011060;28;20105;-58